Terminal Aerodrome Forecast
Issued by NWS

Home | Current Version | Previous Version | Graphics & Text | Print | Product List | Glossary On
Versions: 1 2 3 4 5 6 7 8 9 10 11 12 13 14 15 16 17 18 19 20 21 22 23 24 25 26 27 28
000
FTUS43 KLSX 280500
TAFSUS
TAF
KSUS 280520Z 2806/2906 VRB03KT 4SM BR SKC
      TEMPO 2808/2812 2SM BR
     FM281500 24007KT P6SM SCT040 BKN250
     FM282300 20012G18KT P6SM VCTS SCT050CB SCT100
     FM290400 24008KT P6SM BKN040 BKN070=

USA.gov is the U.S. government's official web portal to all federal, state and local government web resources and services.